Airfield :
LOGIN :

Register | Disclaimer

   EN    FR    IT 

 










Legend :    VFR   Marginal VFR   IFR   Intensive IFR   Very Intensive IFR
Visi :
Ceiling :
>= 8 km
>= 3000ft
5 to 8 km
1000 to 3000 ft
1500m to 5 km
500 to 1000 ft
800 to 1500m
200 to 500 ft
< 800m
< 200 ft
Symbols :   Thunderstorms  Fog  Heavy snow  Heavy precipitations  Wind > 20 kt
SIGMETs :     Misc.  Thunderstorms  Icing  Turbulence  Mountain Waves  Volcanic Ashes







- Airport Elevation : 112 ft
- IATA code : KIR


EIKY - Kerry Farranfore

CURRENT METAR :
  • 121330Z 20012KT 9999 BKN036 BKN043 08/06 Q1001

EXPIRED METARs :
  • 121300Z 20014KT 9999 -RA FEW018 SCT036 BKN042 08/06 Q1001
  • 121230Z 19016KT 9999 -RA SCT018 SCT038 BKN044 07/05 Q1002
  • 121200Z 20011KT 9999 -RA SCT018 SCT040 BKN048 07/05 Q1003
  • 121130Z 19011KT 9000 -RA BKN018 06/05 Q1003
  • 121100Z 18012KT 9999 -RA SCT020 BKN028 06/04 Q1004

TAF TAF EIKY
Valid from the 12 at 12:00 until the 12 at 21:00 UTC


121100Z 1212/1221 18014KT 9999 -RA SCT018 BKN025
BECMG 1212/1213 18015G26KT
TEMPO 1212/1214 5000 RA BKN012
BECMG 1213/1215 29015G26KT
BECMG 1217/1219 30013KT
BECMG 1219/1221 27010KT
No reported NOTAMs for that airfield.
2 SIGMETs reported for the Shannon FIR (EISN) :
 
Severe turbulence
EISN SIGMET 03 VALID 121430/121830 EINN
EISN SHANNON FIR/UIR SEV TURB FCST WI N5100 W00800 - N5420 W01200 - N5434 W01000 - N5445 W00900 - N5425 W00810 - N5215 W00540 - N5100 W00800 FL220/410 MOV ENE AT 18KT NC=
Severe turbulence
EISN SIGMET 02 VALID 121030/121430 EINN
EISN SHANNON FIR/UIR SEV TURB FCST WI N5210 W00549 - N5100 W00800 - N5100 W00940 - N5405 W01414 - N5431 W01030 - N5210 W00549 FL200/410 MOV E AT 15KT WKN=



MET'MAP, your aeronautical weather chart ! - Copyright ORBIFLY December 2007 - Disclaimer

ORBIFLY MET'MAP TEAM :

Programming & Development : Alexandra Zaïnal
Concept & Development : Baudouin d'Aumeries
Co-Development & Prog : Marc-Olivier Méhu
Technical & hardware support : Manuel Goepfert

Contact : metmap@orbifly.com




SOURCES & CREDITS :

   NOAA